sensor_id;sensor_type;location;lat;lon;timestamp;pressure;altitude;pressure_sealevel;temperature;humidity
72685;BME280;61365;52.162;4.500;2022-12-08T00:01:20;101083.22;;;5.04;90.41
72685;BME280;61365;52.162;4.500;2022-12-08T00:03:47;101081.56;;;5.08;89.92
72685;BME280;61365;52.162;4.500;2022-12-08T00:06:28;101076.28;;;5.05;89.29
72685;BME280;61365;52.162;4.500;2022-12-08T00:09:35;101069.03;;;4.93;89.83
72685;BME280;61365;52.162;4.500;2022-12-08T00:12:14;101057.59;;;4.86;90.70
72685;BME280;61365;52.162;4.500;2022-12-08T00:14:44;101059.38;;;4.87;91.14
72685;BME280;61365;52.162;4.500;2022-12-08T00:17:14;101047.13;;;4.83;91.53
72685;BME280;61365;52.162;4.500;2022-12-08T00:19:42;101048.00;;;4.84;91.71
72685;BME280;61365;52.162;4.500;2022-12-08T00:22:10;101041.16;;;4.87;91.05
72685;BME280;61365;52.162;4.500;2022-12-08T00:24:41;101045.72;;;4.96;90.92
72685;BME280;61365;52.162;4.500;2022-12-08T00:27:11;101040.47;;;4.94;90.52
72685;BME280;61365;52.162;4.500;2022-12-08T00:29:42;101032.69;;;4.94;89.51
72685;BME280;61365;52.162;4.500;2022-12-08T00:32:09;101030.25;;;5.01;89.86
72685;BME280;61365;52.162;4.500;2022-12-08T00:34:36;101027.44;;;4.93;90.12
72685;BME280;61365;52.162;4.500;2022-12-08T00:37:03;101018.56;;;4.85;89.81
72685;BME280;61365;52.162;4.500;2022-12-08T00:39:29;101015.88;;;4.81;90.18
72685;BME280;61365;52.162;4.500;2022-12-08T00:41:56;101015.06;;;4.83;90.29
72685;BME280;61365;52.162;4.500;2022-12-08T00:44:38;101009.88;;;4.84;90.46
72685;BME280;61365;52.162;4.500;2022-12-08T00:47:06;101005.66;;;4.88;90.61
72685;BME280;61365;52.162;4.500;2022-12-08T00:49:32;101004.91;;;4.93;90.98
72685;BME280;61365;52.162;4.500;2022-12-08T00:51:59;101013.63;;;4.95;91.10
72685;BME280;61365;52.162;4.500;2022-12-08T00:54:25;101023.47;;;5.07;90.55
72685;BME280;61365;52.162;4.500;2022-12-08T00:56:52;101015.56;;;5.04;90.11
72685;BME280;61365;52.162;4.500;2022-12-08T00:59:18;101013.16;;;5.12;89.78
72685;BME280;61365;52.162;4.500;2022-12-08T01:01:45;101018.16;;;5.03;89.86
72685;BME280;61365;52.162;4.500;2022-12-08T01:04:14;101019.03;;;5.03;90.09
72685;BME280;61365;52.162;4.500;2022-12-08T01:06:43;101021.78;;;5.09;90.48
72685;BME280;61365;52.162;4.500;2022-12-08T01:09:12;101014.66;;;5.02;89.89
72685;BME280;61365;52.162;4.500;2022-12-08T01:11:39;101000.84;;;5.05;90.27
72685;BME280;61365;52.162;4.500;2022-12-08T01:14:06;101002.47;;;5.00;90.60
72685;BME280;61365;52.162;4.500;2022-12-08T01:16:34;100994.66;;;5.00;90.52
72685;BME280;61365;52.162;4.500;2022-12-08T01:19:02;100992.94;;;5.00;90.47
72685;BME280;61365;52.162;4.500;2022-12-08T01:21:28;100994.63;;;4.98;90.83
72685;BME280;61365;52.162;4.500;2022-12-08T01:23:55;100987.56;;;4.92;91.42
72685;BME280;61365;52.162;4.500;2022-12-08T01:26:24;100983.88;;;4.84;91.47
72685;BME280;61365;52.162;4.500;2022-12-08T01:28:51;100977.75;;;4.82;91.59
72685;BME280;61365;52.162;4.500;2022-12-08T01:31:19;100974.03;;;4.71;91.88
72685;BME280;61365;52.162;4.500;2022-12-08T01:33:47;100973.09;;;4.69;92.31
72685;BME280;61365;52.162;4.500;2022-12-08T01:36:23;100974.28;;;4.81;92.76
72685;BME280;61365;52.162;4.500;2022-12-08T01:38:52;100993.59;;;4.91;92.14
72685;BME280;61365;52.162;4.500;2022-12-08T01:41:23;100996.28;;;4.94;91.16
72685;BME280;61365;52.162;4.500;2022-12-08T01:44:00;100996.28;;;4.94;92.02
72685;BME280;61365;52.162;4.500;2022-12-08T01:46:35;100998.03;;;4.95;90.23
72685;BME280;61365;52.162;4.500;2022-12-08T01:49:18;100994.53;;;4.95;90.12
72685;BME280;61365;52.162;4.500;2022-12-08T01:52:23;100994.88;;;5.09;91.08
72685;BME280;61365;52.162;4.500;2022-12-08T01:55:07;100986.81;;;4.98;92.02
72685;BME280;61365;52.162;4.500;2022-12-08T01:57:51;100985.09;;;4.99;92.21
72685;BME280;61365;52.162;4.500;2022-12-08T02:00:23;100979.75;;;4.92;92.61
72685;BME280;61365;52.162;4.500;2022-12-08T02:02:57;100972.88;;;4.94;91.51
72685;BME280;61365;52.162;4.500;2022-12-08T02:05:28;100967.56;;;4.90;91.98
72685;BME280;61365;52.162;4.500;2022-12-08T02:07:57;100959.97;;;4.99;92.05
72685;BME280;61365;52.162;4.500;2022-12-08T02:10:29;100956.41;;;4.95;91.98
72685;BME280;61365;52.162;4.500;2022-12-08T02:12:58;100955.50;;;4.93;91.96
72685;BME280;61365;52.162;4.500;2022-12-08T02:15:40;100953.22;;;5.07;91.39
72685;BME280;61365;52.162;4.500;2022-12-08T02:18:33;100952.16;;;4.99;89.37
72685;BME280;61365;52.162;4.500;2022-12-08T02:21:33;100952.94;;;4.95;88.51
72685;BME280;61365;52.162;4.500;2022-12-08T02:24:36;100952.97;;;4.96;88.69
72685;BME280;61365;52.162;4.500;2022-12-08T02:36:52;100937.97;;;4.85;89.50
72685;BME280;61365;52.162;4.500;2022-12-08T02:45:47;100941.31;;;4.79;90.48
72685;BME280;61365;52.162;4.500;2022-12-08T02:47:57;100937.97;;;4.86;90.55
72685;BME280;61365;52.162;4.500;2022-12-08T02:50:26;100933.44;;;4.76;89.17
72685;BME280;61365;52.162;4.500;2022-12-08T02:52:53;100933.50;;;4.79;89.10
72685;BME280;61365;52.162;4.500;2022-12-08T02:56:19;100928.41;;;4.84;88.86
72685;BME280;61365;52.162;4.500;2022-12-08T02:58:45;100923.63;;;5.02;90.27
72685;BME280;61365;52.162;4.500;2022-12-08T03:01:44;100912.22;;;4.95;87.38
72685;BME280;61365;52.162;4.500;2022-12-08T03:07:27;100898.59;;;5.07;87.79
72685;BME280;61365;52.162;4.500;2022-12-08T03:11:09;100898.22;;;4.90;89.00
72685;BME280;61365;52.162;4.500;2022-12-08T03:13:13;100906.00;;;4.89;89.75
72685;BME280;61365;52.162;4.500;2022-12-08T03:15:46;100920.94;;;4.98;90.80
72685;BME280;61365;52.162;4.500;2022-12-08T03:18:17;100920.34;;;5.11;91.12
72685;BME280;61365;52.162;4.500;2022-12-08T03:20:48;100899.13;;;4.91;89.68
72685;BME280;61365;52.162;4.500;2022-12-08T03:23:17;100902.72;;;4.98;91.47
72685;BME280;61365;52.162;4.500;2022-12-08T03:26:13;100907.84;;;4.94;88.43
72685;BME280;61365;52.162;4.500;2022-12-08T03:28:47;100892.47;;;5.04;89.85
72685;BME280;61365;52.162;4.500;2022-12-08T03:31:14;100883.69;;;4.99;88.04
72685;BME280;61365;52.162;4.500;2022-12-08T03:33:48;100875.81;;;4.97;87.87
72685;BME280;61365;52.162;4.500;2022-12-08T03:36:19;100870.28;;;4.81;88.27
72685;BME280;61365;52.162;4.500;2022-12-08T03:38:49;100867.25;;;4.63;88.44
72685;BME280;61365;52.162;4.500;2022-12-08T03:41:20;100867.50;;;4.74;89.51
72685;BME280;61365;52.162;4.500;2022-12-08T03:46:17;100876.31;;;4.79;89.80
72685;BME280;61365;52.162;4.500;2022-12-08T03:48:45;100872.03;;;4.83;88.38
72685;BME280;61365;52.162;4.500;2022-12-08T03:51:12;100876.34;;;5.20;86.67
72685;BME280;61365;52.162;4.500;2022-12-08T03:53:39;100869.38;;;4.79;89.40
72685;BME280;61365;52.162;4.500;2022-12-08T03:56:23;100866.25;;;4.94;89.37
72685;BME280;61365;52.162;4.500;2022-12-08T03:58:53;100874.59;;;4.81;89.51
72685;BME280;61365;52.162;4.500;2022-12-08T04:01:20;100890.16;;;4.78;88.29
72685;BME280;61365;52.162;4.500;2022-12-08T04:03:47;100876.47;;;4.50;90.42
72685;BME280;61365;52.162;4.500;2022-12-08T04:06:15;100880.25;;;4.63;90.73
72685;BME280;61365;52.162;4.500;2022-12-08T04:08:42;100874.00;;;4.56;89.54
72685;BME280;61365;52.162;4.500;2022-12-08T04:11:09;100879.84;;;4.46;90.91
72685;BME280;61365;52.162;4.500;2022-12-08T04:13:37;100860.25;;;4.60;92.24
72685;BME280;61365;52.162;4.500;2022-12-08T04:16:06;100869.28;;;4.40;90.89
72685;BME280;61365;52.162;4.500;2022-12-08T04:18:33;100861.84;;;4.55;93.13
72685;BME280;61365;52.162;4.500;2022-12-08T04:21:00;100851.44;;;4.54;90.68
72685;BME280;61365;52.162;4.500;2022-12-08T04:23:27;100852.09;;;4.45;91.46
72685;BME280;61365;52.162;4.500;2022-12-08T04:25:53;100855.78;;;4.53;91.25
72685;BME280;61365;52.162;4.500;2022-12-08T04:28:19;100846.50;;;4.64;91.76
72685;BME280;61365;52.162;4.500;2022-12-08T04:30:47;100853.22;;;4.56;90.76
72685;BME280;61365;52.162;4.500;2022-12-08T04:33:14;100845.41;;;4.56;90.89
72685;BME280;61365;52.162;4.500;2022-12-08T04:35:41;100844.38;;;4.48;90.63
72685;BME280;61365;52.162;4.500;2022-12-08T04:38:07;100843.63;;;4.52;90.36
72685;BME280;61365;52.162;4.500;2022-12-08T04:40:34;100835.63;;;4.44;90.09
72685;BME280;61365;52.162;4.500;2022-12-08T04:43:00;100838.03;;;4.36;90.36
72685;BME280;61365;52.162;4.500;2022-12-08T04:45:26;100832.16;;;4.45;90.62
72685;BME280;61365;52.162;4.500;2022-12-08T04:47:53;100828.63;;;4.42;90.52
72685;BME280;61365;52.162;4.500;2022-12-08T04:50:19;100828.88;;;4.53;90.12
72685;BME280;61365;52.162;4.500;2022-12-08T04:52:45;100831.50;;;4.54;89.80
72685;BME280;61365;52.162;4.500;2022-12-08T04:55:12;100838.53;;;4.57;90.54
72685;BME280;61365;52.162;4.500;2022-12-08T04:57:38;100845.09;;;4.79;91.24
72685;BME280;61365;52.162;4.500;2022-12-08T05:00:05;100839.09;;;4.45;88.54
72685;BME280;61365;52.162;4.500;2022-12-08T05:02:32;100840.38;;;4.62;87.14
72685;BME280;61365;52.162;4.500;2022-12-08T05:04:58;100834.31;;;4.62;87.61
72685;BME280;61365;52.162;4.500;2022-12-08T05:07:25;100826.59;;;4.65;87.47
72685;BME280;61365;52.162;4.500;2022-12-08T05:09:51;100825.31;;;4.86;86.55
72685;BME280;61365;52.162;4.500;2022-12-08T05:12:18;100839.31;;;4.92;85.22
72685;BME280;61365;52.162;4.500;2022-12-08T05:14:46;100843.94;;;4.66;86.63
72685;BME280;61365;52.162;4.500;2022-12-08T05:17:16;100849.56;;;4.13;88.03
72685;BME280;61365;52.162;4.500;2022-12-08T05:19:43;100848.44;;;3.69;88.63
72685;BME280;61365;52.162;4.500;2022-12-08T05:22:10;100836.00;;;3.57;90.30
72685;BME280;61365;52.162;4.500;2022-12-08T05:24:36;100835.63;;;3.75;87.44
72685;BME280;61365;52.162;4.500;2022-12-08T05:27:03;100841.91;;;3.52;89.70
72685;BME280;61365;52.162;4.500;2022-12-08T05:29:29;100847.47;;;3.34;93.14
72685;BME280;61365;52.162;4.500;2022-12-08T05:31:56;100845.06;;;3.40;93.97
72685;BME280;61365;52.162;4.500;2022-12-08T05:34:22;100850.47;;;3.49;94.50
72685;BME280;61365;52.162;4.500;2022-12-08T05:36:49;100852.84;;;3.40;95.46
72685;BME280;61365;52.162;4.500;2022-12-08T05:39:15;100850.47;;;3.49;96.87
72685;BME280;61365;52.162;4.500;2022-12-08T05:41:41;100856.81;;;3.59;97.54
72685;BME280;61365;52.162;4.500;2022-12-08T05:44:08;100865.69;;;3.67;97.74
72685;BME280;61365;52.162;4.500;2022-12-08T05:46:34;100851.13;;;3.72;95.22
72685;BME280;61365;52.162;4.500;2022-12-08T05:49:01;100853.44;;;3.62;94.88
72685;BME280;61365;52.162;4.500;2022-12-08T05:51:28;100854.13;;;3.88;96.71
72685;BME280;61365;52.162;4.500;2022-12-08T05:53:55;100857.00;;;3.67;96.62
72685;BME280;61365;52.162;4.500;2022-12-08T05:56:22;100850.22;;;3.72;96.82
72685;BME280;61365;52.162;4.500;2022-12-08T05:58:49;100840.78;;;3.74;95.99
72685;BME280;61365;52.162;4.500;2022-12-08T06:01:30;100840.22;;;3.86;96.56
72685;BME280;61365;52.162;4.500;2022-12-08T06:03:58;100829.56;;;3.75;95.96
72685;BME280;61365;52.162;4.500;2022-12-08T06:06:26;100833.81;;;3.73;95.65
72685;BME280;61365;52.162;4.500;2022-12-08T06:08:53;100825.56;;;3.88;96.21
72685;BME280;61365;52.162;4.500;2022-12-08T06:11:26;100815.09;;;3.85;96.12
72685;BME280;61365;52.162;4.500;2022-12-08T06:13:54;100817.50;;;3.77;96.10
72685;BME280;61365;52.162;4.500;2022-12-08T06:16:26;100813.22;;;3.79;95.78
72685;BME280;61365;52.162;4.500;2022-12-08T06:18:53;100813.22;;;3.78;96.08
72685;BME280;61365;52.162;4.500;2022-12-08T06:21:20;100822.03;;;3.84;95.92
72685;BME280;61365;52.162;4.500;2022-12-08T06:23:48;100818.34;;;3.76;94.91
72685;BME280;61365;52.162;4.500;2022-12-08T06:26:17;100815.09;;;3.85;95.25
72685;BME280;61365;52.162;4.500;2022-12-08T06:28:45;100811.72;;;3.87;95.57
72685;BME280;61365;52.162;4.500;2022-12-08T06:31:20;100816.84;;;3.86;94.72
72685;BME280;61365;52.162;4.500;2022-12-08T06:33:51;100817.97;;;3.96;94.91
72685;BME280;61365;52.162;4.500;2022-12-08T06:36:22;100813.63;;;3.95;94.90
72685;BME280;61365;52.162;4.500;2022-12-08T06:38:50;100808.16;;;3.84;94.42
72685;BME280;61365;52.162;4.500;2022-12-08T06:41:17;100810.38;;;3.70;93.82
72685;BME280;61365;52.162;4.500;2022-12-08T06:43:44;100812.19;;;3.72;93.18
72685;BME280;61365;52.162;4.500;2022-12-08T06:46:13;100802.22;;;3.56;93.61
72685;BME280;61365;52.162;4.500;2022-12-08T06:48:42;100804.41;;;3.72;94.05
72685;BME280;61365;52.162;4.500;2022-12-08T06:51:15;100809.69;;;3.75;94.09
72685;BME280;61365;52.162;4.500;2022-12-08T06:53:44;100807.19;;;3.80;93.99
72685;BME280;61365;52.162;4.500;2022-12-08T06:56:12;100803.72;;;3.80;94.84
72685;BME280;61365;52.162;4.500;2022-12-08T06:58:41;100802.84;;;3.79;94.92
72685;BME280;61365;52.162;4.500;2022-12-08T07:01:09;100806.91;;;3.69;94.67
72685;BME280;61365;52.162;4.500;2022-12-08T07:03:38;100800.13;;;3.74;95.31
72685;BME280;61365;52.162;4.500;2022-12-08T07:06:05;100804.53;;;3.79;95.64
72685;BME280;61365;52.162;4.500;2022-12-08T07:08:33;100805.97;;;3.66;95.02
72685;BME280;61365;52.162;4.500;2022-12-08T07:11:09;100801.75;;;3.71;94.93
72685;BME280;61365;52.162;4.500;2022-12-08T07:13:36;100807.31;;;3.85;96.02
72685;BME280;61365;52.162;4.500;2022-12-08T07:16:09;100806.22;;;4.10;96.71
72685;BME280;61365;52.162;4.500;2022-12-08T07:18:37;100807.81;;;4.03;96.31
72685;BME280;61365;52.162;4.500;2022-12-08T07:21:06;100811.25;;;4.02;95.53
72685;BME280;61365;52.162;4.500;2022-12-08T07:23:35;100796.75;;;4.12;95.78
72685;BME280;61365;52.162;4.500;2022-12-08T07:26:03;100805.81;;;3.93;94.59
72685;BME280;61365;52.162;4.500;2022-12-08T07:28:32;100796.69;;;4.09;95.31
72685;BME280;61365;52.162;4.500;2022-12-08T07:30:59;100803.66;;;4.12;94.41
72685;BME280;61365;52.162;4.500;2022-12-08T07:33:25;100801.56;;;3.97;93.33
72685;BME280;61365;52.162;4.500;2022-12-08T07:35:56;100792.94;;;3.98;93.93
72685;BME280;61365;52.162;4.500;2022-12-08T07:38:25;100792.22;;;4.03;93.84
72685;BME280;61365;52.162;4.500;2022-12-08T07:40:52;100787.09;;;4.06;93.41
72685;BME280;61365;52.162;4.500;2022-12-08T07:43:19;100792.53;;;4.17;94.23
72685;BME280;61365;52.162;4.500;2022-12-08T07:45:47;100802.41;;;4.31;94.75
72685;BME280;61365;52.162;4.500;2022-12-08T07:48:15;100818.06;;;4.34;94.62
72685;BME280;61365;52.162;4.500;2022-12-08T07:50:42;100824.19;;;4.36;94.33
72685;BME280;61365;52.162;4.500;2022-12-08T07:53:09;100819.97;;;4.41;94.66
72685;BME280;61365;52.162;4.500;2022-12-08T07:55:42;100829.97;;;4.62;85.90
72685;BME280;61365;52.162;4.500;2022-12-08T07:58:09;100837.03;;;4.31;88.34
72685;BME280;61365;52.162;4.500;2022-12-08T08:00:36;100840.22;;;4.56;84.49
72685;BME280;61365;52.162;4.500;2022-12-08T08:03:03;100834.44;;;4.31;88.06
72685;BME280;61365;52.162;4.500;2022-12-08T08:05:29;100827.75;;;4.06;88.40
72685;BME280;61365;52.162;4.500;2022-12-08T08:07:55;100811.28;;;3.70;86.21
72685;BME280;61365;52.162;4.500;2022-12-08T08:10:22;100809.81;;;3.48;87.59
72685;BME280;61365;52.162;4.500;2022-12-08T08:12:48;100806.63;;;3.58;88.47
72685;BME280;61365;52.162;4.500;2022-12-08T08:15:14;100817.97;;;3.62;90.79
72685;BME280;61365;52.162;4.500;2022-12-08T08:17:42;100813.91;;;3.72;90.51
72685;BME280;61365;52.162;4.500;2022-12-08T08:20:09;100818.94;;;3.99;92.58
72685;BME280;61365;52.162;4.500;2022-12-08T08:22:36;100825.94;;;4.02;91.42
72685;BME280;61365;52.162;4.500;2022-12-08T08:25:03;100834.72;;;4.07;93.09
72685;BME280;61365;52.162;4.500;2022-12-08T08:27:30;100840.78;;;4.08;92.00
72685;BME280;61365;52.162;4.500;2022-12-08T08:29:56;100846.88;;;4.10;93.33
72685;BME280;61365;52.162;4.500;2022-12-08T08:32:23;100843.22;;;4.36;93.55
72685;BME280;61365;52.162;4.500;2022-12-08T08:34:50;100833.91;;;4.45;92.88
72685;BME280;61365;52.162;4.500;2022-12-08T08:37:17;100836.59;;;4.49;92.36
72685;BME280;61365;52.162;4.500;2022-12-08T08:39:43;100830.66;;;4.55;91.83
72685;BME280;61365;52.162;4.500;2022-12-08T08:42:09;100829.56;;;4.44;92.18
72685;BME280;61365;52.162;4.500;2022-12-08T08:44:36;100821.69;;;4.42;91.92
72685;BME280;61365;52.162;4.500;2022-12-08T08:47:03;100825.44;;;4.52;92.21
72685;BME280;61365;52.162;4.500;2022-12-08T08:49:30;100828.78;;;4.48;91.92
72685;BME280;61365;52.162;4.500;2022-12-08T08:51:56;100830.63;;;4.52;91.83
72685;BME280;61365;52.162;4.500;2022-12-08T08:54:22;100821.06;;;4.51;91.53
72685;BME280;61365;52.162;4.500;2022-12-08T08:56:49;100815.06;;;4.54;91.50
72685;BME280;61365;52.162;4.500;2022-12-08T08:59:15;100818.41;;;4.49;91.33
72685;BME280;61365;52.162;4.500;2022-12-08T09:01:42;100812.69;;;4.63;90.89
72685;BME280;61365;52.162;4.500;2022-12-08T09:04:09;100810.94;;;4.63;91.33
72685;BME280;61365;52.162;4.500;2022-12-08T09:06:35;100808.13;;;4.54;89.84
72685;BME280;61365;52.162;4.500;2022-12-08T09:09:02;100813.16;;;4.46;90.32
72685;BME280;61365;52.162;4.500;2022-12-08T09:11:29;100818.94;;;4.34;89.57
72685;BME280;61365;52.162;4.500;2022-12-08T09:13:56;100824.34;;;4.44;91.03
72685;BME280;61365;52.162;4.500;2022-12-08T09:16:23;100819.84;;;4.36;89.76
72685;BME280;61365;52.162;4.500;2022-12-08T09:18:49;100816.97;;;4.24;89.27
72685;BME280;61365;52.162;4.500;2022-12-08T09:21:19;100809.38;;;4.33;91.20
72685;BME280;61365;52.162;4.500;2022-12-08T09:23:53;100812.03;;;4.35;90.50
72685;BME280;61365;52.162;4.500;2022-12-08T09:26:21;100812.72;;;4.28;89.87
72685;BME280;61365;52.162;4.500;2022-12-08T09:28:53;100812.13;;;4.40;91.16
72685;BME280;61365;52.162;4.500;2022-12-08T09:31:20;100822.66;;;4.09;89.50
72685;BME280;61365;52.162;4.500;2022-12-08T09:33:48;100828.06;;;4.18;89.47
72685;BME280;61365;52.162;4.500;2022-12-08T09:36:19;100825.81;;;3.97;90.36
72685;BME280;61365;52.162;4.500;2022-12-08T09:38:45;100840.88;;;3.79;91.49
72685;BME280;61365;52.162;4.500;2022-12-08T09:41:34;100850.78;;;3.92;92.37
72685;BME280;61365;52.162;4.500;2022-12-08T09:44:13;100842.69;;;4.13;90.73
72685;BME280;61365;52.162;4.500;2022-12-08T09:46:47;100841.56;;;4.03;91.66
72685;BME280;61365;52.162;4.500;2022-12-08T09:49:23;100838.81;;;3.99;91.95
72685;BME280;61365;52.162;4.500;2022-12-08T09:52:02;100829.91;;;3.89;91.51
72685;BME280;61365;52.162;4.500;2022-12-08T09:54:33;100833.53;;;3.94;91.76
72685;BME280;61365;52.162;4.500;2022-12-08T09:57:06;100832.78;;;4.00;91.08
72685;BME280;61365;52.162;4.500;2022-12-08T09:59:44;100836.56;;;3.78;91.08
72685;BME280;61365;52.162;4.500;2022-12-08T10:02:24;100831.84;;;3.96;92.23
72685;BME280;61365;52.162;4.500;2022-12-08T10:04:54;100822.75;;;4.14;92.01
72685;BME280;61365;52.162;4.500;2022-12-08T10:13:19;100820.28;;;3.85;91.12
72685;BME280;61365;52.162;4.500;2022-12-08T10:18:52;100816.66;;;4.12;91.86
72685;BME280;61365;52.162;4.500;2022-12-08T10:21:45;100819.06;;;4.05;92.00
72685;BME280;61365;52.162;4.500;2022-12-08T10:24:17;100811.03;;;4.30;92.71
72685;BME280;61365;52.162;4.500;2022-12-08T10:26:48;100812.22;;;4.44;91.77
72685;BME280;61365;52.162;4.500;2022-12-08T10:29:15;100809.00;;;4.55;91.54
72685;BME280;61365;52.162;4.500;2022-12-08T10:31:41;100804.34;;;4.40;89.56
72685;BME280;61365;52.162;4.500;2022-12-08T10:34:20;100800.81;;;4.38;90.70
72685;BME280;61365;52.162;4.500;2022-12-08T10:36:50;100803.22;;;4.28;89.78
72685;BME280;61365;52.162;4.500;2022-12-08T10:39:29;100786.72;;;4.28;89.26
72685;BME280;61365;52.162;4.500;2022-12-08T10:42:17;100773.13;;;4.38;89.47
72685;BME280;61365;52.162;4.500;2022-12-08T10:44:58;100768.91;;;4.43;89.17
72685;BME280;61365;52.162;4.500;2022-12-08T10:47:29;100773.72;;;4.26;88.92
72685;BME280;61365;52.162;4.500;2022-12-08T10:50:18;100766.56;;;4.17;89.92
72685;BME280;61365;52.162;4.500;2022-12-08T10:52:57;100757.25;;;4.26;90.62
72685;BME280;61365;52.162;4.500;2022-12-08T10:55:44;100753.72;;;4.24;90.25
72685;BME280;61365;52.162;4.500;2022-12-08T10:58:37;100758.72;;;4.14;90.35
72685;BME280;61365;52.162;4.500;2022-12-08T11:01:11;100753.63;;;4.19;90.17
72685;BME280;61365;52.162;4.500;2022-12-08T11:03:47;100749.13;;;4.12;89.56
72685;BME280;61365;52.162;4.500;2022-12-08T11:06:20;100749.78;;;4.40;89.74
72685;BME280;61365;52.162;4.500;2022-12-08T11:09:00;100748.69;;;4.31;88.22
72685;BME280;61365;52.162;4.500;2022-12-08T11:14:24;100741.50;;;4.19;89.30
72685;BME280;61365;52.162;4.500;2022-12-08T11:17:56;100739.13;;;4.27;89.79
72685;BME280;61365;52.162;4.500;2022-12-08T11:22:40;100735.16;;;4.06;89.51
72685;BME280;61365;52.162;4.500;2022-12-08T11:27:38;100736.03;;;4.07;90.44
72685;BME280;61365;52.162;4.500;2022-12-08T11:30:19;100731.44;;;3.95;90.03
72685;BME280;61365;52.162;4.500;2022-12-08T11:33:05;100740.66;;;3.84;90.99
72685;BME280;61365;52.162;4.500;2022-12-08T11:35:43;100743.38;;;3.88;91.80
72685;BME280;61365;52.162;4.500;2022-12-08T11:38:14;100744.56;;;4.01;90.96
72685;BME280;61365;52.162;4.500;2022-12-08T11:40:47;100747.22;;;4.04;91.40
72685;BME280;61365;52.162;4.500;2022-12-08T11:46:01;100739.22;;;3.95;89.89
72685;BME280;61365;52.162;4.500;2022-12-08T11:48:36;100734.09;;;3.98;89.27
72685;BME280;61365;52.162;4.500;2022-12-08T11:51:19;100730.75;;;4.04;90.46
72685;BME280;61365;52.162;4.500;2022-12-08T11:56:58;100730.53;;;3.95;89.10
72685;BME280;61365;52.162;4.500;2022-12-08T11:59:43;100716.59;;;3.89;88.81
72685;BME280;61365;52.162;4.500;2022-12-08T12:02:20;100708.75;;;3.88;89.40
72685;BME280;61365;52.162;4.500;2022-12-08T12:05:40;100712.56;;;4.02;89.03
72685;BME280;61365;52.162;4.500;2022-12-08T12:08:44;100704.69;;;3.99;89.28
72685;BME280;61365;52.162;4.500;2022-12-08T12:18:03;100688.66;;;3.81;88.26
72685;BME280;61365;52.162;4.500;2022-12-08T12:20:45;100680.69;;;3.73;88.96
72685;BME280;61365;52.162;4.500;2022-12-08T12:23:21;100686.78;;;3.73;89.46
72685;BME280;61365;52.162;4.500;2022-12-08T12:25:56;100682.69;;;3.83;89.87
72685;BME280;61365;52.162;4.500;2022-12-08T12:28:29;100677.22;;;3.72;88.00
72685;BME280;61365;52.162;4.500;2022-12-08T12:31:35;100673.88;;;3.77;88.48
72685;BME280;61365;52.162;4.500;2022-12-08T12:34:14;100680.78;;;3.76;88.27
72685;BME280;61365;52.162;4.500;2022-12-08T12:36:58;100684.19;;;3.75;87.12
72685;BME280;61365;52.162;4.500;2022-12-08T12:39:45;100688.28;;;4.00;88.30
72685;BME280;61365;52.162;4.500;2022-12-08T12:42:41;100696.69;;;3.91;87.27
72685;BME280;61365;52.162;4.500;2022-12-08T12:47:49;100704.50;;;4.28;87.88
72685;BME280;61365;52.162;4.500;2022-12-08T12:53:03;100697.28;;;4.16;88.02
72685;BME280;61365;52.162;4.500;2022-12-08T12:58:40;100701.47;;;4.10;90.41
72685;BME280;61365;52.162;4.500;2022-12-08T13:03:41;100693.97;;;4.24;90.18
72685;BME280;61365;52.162;4.500;2022-12-08T13:06:13;100697.03;;;4.05;88.63
72685;BME280;61365;52.162;4.500;2022-12-08T13:08:51;100694.25;;;3.98;88.79
72685;BME280;61365;52.162;4.500;2022-12-08T13:11:20;100685.81;;;4.06;89.74
72685;BME280;61365;52.162;4.500;2022-12-08T13:13:59;100669.50;;;4.12;88.38
72685;BME280;61365;52.162;4.500;2022-12-08T13:16:36;100670.59;;;4.22;88.16
72685;BME280;61365;52.162;4.500;2022-12-08T13:19:11;100673.81;;;4.12;88.85
72685;BME280;61365;52.162;4.500;2022-12-08T13:21:40;100671.44;;;4.21;88.45
72685;BME280;61365;52.162;4.500;2022-12-08T13:26:46;100668.31;;;4.38;87.79
72685;BME280;61365;52.162;4.500;2022-12-08T13:29:24;100674.88;;;4.20;87.95
72685;BME280;61365;52.162;4.500;2022-12-08T13:31:57;100680.81;;;4.14;88.64
72685;BME280;61365;52.162;4.500;2022-12-08T13:34:48;100680.81;;;4.14;89.11
72685;BME280;61365;52.162;4.500;2022-12-08T13:37:39;100677.31;;;4.14;89.66
72685;BME280;61365;52.162;4.500;2022-12-08T13:40:23;100684.13;;;4.09;89.04
72685;BME280;61365;52.162;4.500;2022-12-08T13:45:28;100683.16;;;4.03;90.58
72685;BME280;61365;52.162;4.500;2022-12-08T13:48:09;100679.06;;;4.13;91.42
72685;BME280;61365;52.162;4.500;2022-12-08T13:50:49;100680.13;;;4.23;90.63
72685;BME280;61365;52.162;4.500;2022-12-08T13:53:34;100656.16;;;4.36;90.37
72685;BME280;61365;52.162;4.500;2022-12-08T13:56:05;100659.53;;;4.31;90.32
72685;BME280;61365;52.162;4.500;2022-12-08T13:58:36;100654.19;;;4.25;90.53
72685;BME280;61365;52.162;4.500;2022-12-08T14:03:56;100659.81;;;4.05;91.51
72685;BME280;61365;52.162;4.500;2022-12-08T14:06:29;100653.72;;;4.03;91.30
72685;BME280;61365;52.162;4.500;2022-12-08T14:09:03;100642.88;;;4.23;91.55
72685;BME280;61365;52.162;4.500;2022-12-08T14:11:35;100642.69;;;4.13;90.33
72685;BME280;61365;52.162;4.500;2022-12-08T14:14:05;100648.72;;;4.12;90.46
72685;BME280;61365;52.162;4.500;2022-12-08T14:16:42;100641.72;;;4.49;92.11
72685;BME280;61365;52.162;4.500;2022-12-08T14:19:23;100631.72;;;4.70;91.10
72685;BME280;61365;52.162;4.500;2022-12-08T14:21:56;100640.00;;;4.50;90.01
72685;BME280;61365;52.162;4.500;2022-12-08T14:24:29;100638.97;;;4.43;90.42
72685;BME280;61365;52.162;4.500;2022-12-08T14:27:07;100635.94;;;4.63;89.27
72685;BME280;61365;52.162;4.500;2022-12-08T14:29:54;100638.09;;;4.41;88.87
72685;BME280;61365;52.162;4.500;2022-12-08T14:32:29;100632.91;;;4.43;90.20
72685;BME280;61365;52.162;4.500;2022-12-08T14:37:46;100637.22;;;3.64;90.65
72685;BME280;61365;52.162;4.500;2022-12-08T14:40:33;100644.75;;;3.53;91.32